createdAt,value
2022-10-13T00:01:26.327Z,100203.72
2022-10-13T00:03:53.606Z,100205.28
2022-10-13T00:06:23.065Z,100202.19
2022-10-13T00:08:49.654Z,100198.25
2022-10-13T00:11:21.430Z,100201.53
2022-10-13T00:13:49.323Z,100206.50
2022-10-13T00:16:19.265Z,100201.63
2022-10-13T00:18:46.295Z,100189.59
2022-10-13T00:21:15.482Z,100193.31
2022-10-13T00:23:42.119Z,100193.22
2022-10-13T00:26:10.260Z,100188.94
2022-10-13T00:28:39.115Z,100186.81
2022-10-13T00:31:15.073Z,100181.53
2022-10-13T00:33:42.954Z,100179.56
2022-10-13T00:36:09.892Z,100188.03
2022-10-13T00:38:36.805Z,100183.72
2022-10-13T00:41:03.778Z,100172.44
2022-10-13T00:43:51.060Z,100181.88
2022-10-13T00:46:18.456Z,100182.66
2022-10-13T00:48:46.103Z,100184.81
2022-10-13T00:51:16.019Z,100180.78
2022-10-13T00:53:44.206Z,100176.81
2022-10-13T00:56:13.158Z,100175.16
2022-10-13T00:58:42.226Z,100169.66
2022-10-13T01:01:11.010Z,100168.78
2022-10-13T01:03:38.525Z,100165.06
2022-10-13T01:06:06.906Z,100169.06
2022-10-13T01:08:34.758Z,100162.75
2022-10-13T01:11:18.919Z,100156.94
2022-10-13T01:13:51.492Z,100154.03
2022-10-13T01:16:27.380Z,100152.81
2022-10-13T01:18:59.846Z,100153.03
2022-10-13T01:21:33.150Z,100145.38
2022-10-13T01:24:31.946Z,100138.53
2022-10-13T01:27:11.032Z,100146.50
2022-10-13T01:30:13.291Z,100138.91
2022-10-13T01:33:04.451Z,100136.16
2022-10-13T01:35:43.169Z,100134.41
2022-10-13T01:38:18.083Z,100130.72
2022-10-13T01:40:52.426Z,100125.34
2022-10-13T01:43:25.390Z,100127.00
2022-10-13T01:45:57.504Z,100132.88
2022-10-13T01:48:28.057Z,100122.59
2022-10-13T01:50:57.215Z,100124.47
2022-10-13T01:53:24.457Z,100118.28
2022-10-13T01:55:53.542Z,100123.16
2022-10-13T01:58:21.337Z,100113.56
2022-10-13T02:01:00.668Z,100117.59
2022-10-13T02:03:37.324Z,100123.06
2022-10-13T02:06:15.804Z,100119.91
2022-10-13T02:08:48.498Z,100119.47
2022-10-13T02:11:18.243Z,100118.06
2022-10-13T02:13:51.072Z,100114.88
2022-10-13T02:16:18.191Z,100116.09
2022-10-13T02:18:46.665Z,100110.63
2022-10-13T02:21:13.297Z,100103.50
2022-10-13T02:23:40.234Z,100100.13
2022-10-13T02:26:06.736Z,100108.31
2022-10-13T02:28:33.657Z,100103.50
2022-10-13T02:31:00.240Z,100105.47
2022-10-13T02:33:27.267Z,100105.81
2022-10-13T02:35:55.784Z,100108.53
2022-10-13T02:38:22.418Z,100107.53
2022-10-13T02:40:49.315Z,100108.41
2022-10-13T02:43:17.167Z,100105.34
2022-10-13T02:45:43.959Z,100106.25
2022-10-13T02:48:10.896Z,100105.47
2022-10-13T02:50:37.802Z,100098.38
2022-10-13T02:53:06.602Z,100107.66
2022-10-13T02:55:33.750Z,100110.94
2022-10-13T02:58:00.561Z,100110.94
2022-10-13T03:00:27.298Z,100102.22
2022-10-13T03:02:54.179Z,100105.25
2022-10-13T03:05:20.716Z,100095.53
2022-10-13T03:07:47.515Z,100088.53
2022-10-13T03:10:15.993Z,100100.00
2022-10-13T03:12:42.631Z,100094.09
2022-10-13T03:15:10.016Z,100086.66
2022-10-13T03:17:36.611Z,100093.88
2022-10-13T03:20:04.013Z,100083.84
2022-10-13T03:22:31.794Z,100084.69
2022-10-13T03:25:00.114Z,100079.56
2022-10-13T03:27:28.405Z,100079.78
2022-10-13T03:29:54.997Z,100082.63
2022-10-13T03:32:21.899Z,100078.38
2022-10-13T03:34:49.909Z,100077.47
2022-10-13T03:37:16.478Z,100069.19
2022-10-13T03:39:43.067Z,100075.31
2022-10-13T03:42:10.911Z,100077.38
2022-10-13T03:44:39.855Z,100067.53
2022-10-13T03:47:06.629Z,100065.47
2022-10-13T03:49:33.478Z,100067.19
2022-10-13T03:52:00.287Z,100056.06
2022-10-13T03:54:27.606Z,100048.75
2022-10-13T03:56:54.170Z,100060.09
2022-10-13T03:59:20.767Z,100047.94
2022-10-13T04:01:49.664Z,100054.53
2022-10-13T04:04:16.629Z,100057.34
2022-10-13T04:06:43.242Z,100055.91
2022-10-13T04:09:11.126Z,100053.09
2022-10-13T04:11:39.357Z,100059.97
2022-10-13T04:14:06.214Z,100040.41
2022-10-13T04:16:33.814Z,100047.44
2022-10-13T04:19:03.896Z,100042.25
2022-10-13T04:21:31.994Z,100053.41
2022-10-13T04:23:59.490Z,100046.31
2022-10-13T04:26:28.995Z,100042.13
2022-10-13T04:28:57.102Z,100040.06
2022-10-13T04:31:24.037Z,100041.88
2022-10-13T04:33:51.516Z,100039.44
2022-10-13T04:36:20.210Z,100039.25
2022-10-13T04:38:47.707Z,100031.56
2022-10-13T04:41:16.951Z,100039.25
2022-10-13T04:43:43.625Z,100035.31
2022-10-13T04:46:13.673Z,100021.09
2022-10-13T04:48:40.869Z,100037.66
2022-10-13T04:51:09.503Z,100029.69
2022-10-13T04:53:37.936Z,100030.25
2022-10-13T04:56:08.700Z,100031.25
2022-10-13T04:58:35.676Z,100033.50
2022-10-13T05:01:02.982Z,100023.91
2022-10-13T05:03:29.909Z,100013.53
2022-10-13T05:05:57.343Z,100018.69
2022-10-13T05:08:23.984Z,100023.59
2022-10-13T05:11:00.565Z,100019.78
2022-10-13T05:13:28.936Z,100024.22
2022-10-13T05:15:56.035Z,100016.19
2022-10-13T05:18:22.898Z,100017.66
2022-10-13T05:20:49.559Z,100017.56
2022-10-13T05:23:16.718Z,100022.34
2022-10-13T05:25:43.265Z,100014.75
2022-10-13T05:28:11.409Z,100021.47
2022-10-13T05:30:38.002Z,100019.84
2022-10-13T05:33:04.514Z,100021.34
2022-10-13T05:35:31.147Z,100022.56
2022-10-13T05:37:57.703Z,100016.50
2022-10-13T05:40:25.470Z,100024.47
2022-10-13T05:42:53.654Z,100020.53
2022-10-13T05:45:23.170Z,100011.50
2022-10-13T05:47:49.992Z,100006.09
2022-10-13T05:50:16.773Z,100009.69
2022-10-13T05:52:44.520Z,100000.69
2022-10-13T05:55:16.033Z,100005.22
2022-10-13T05:57:45.770Z,100009.16
2022-10-13T06:00:15.819Z,100014.47
2022-10-13T06:02:49.813Z,100007.25
2022-10-13T06:05:18.928Z,99999.50
2022-10-13T06:07:46.859Z,99996.66
2022-10-13T06:10:14.228Z,99990.31
2022-10-13T06:12:40.946Z,99989.31
2022-10-13T06:15:09.622Z,99984.84
2022-10-13T06:17:36.392Z,99977.41
2022-10-13T06:20:05.723Z,99981.69
2022-10-13T06:22:32.929Z,99976.59
2022-10-13T06:24:59.529Z,99984.13
2022-10-13T06:27:27.509Z,99971.75
2022-10-13T06:29:54.188Z,99984.28
2022-10-13T06:32:21.149Z,99972.00
2022-10-13T06:34:48.162Z,99959.69
2022-10-13T06:37:16.071Z,99991.72
2022-10-13T06:39:42.834Z,99986.84
2022-10-13T06:42:09.478Z,99984.59
2022-10-13T06:44:35.942Z,99985.19
2022-10-13T06:47:02.737Z,99991.03
2022-10-13T06:49:29.479Z,99998.78
2022-10-13T06:51:56.149Z,99977.91
2022-10-13T06:54:25.992Z,99969.94
2022-10-13T06:56:52.523Z,99977.00
2022-10-13T06:59:19.024Z,99981.50
2022-10-13T07:01:45.715Z,99975.97
2022-10-13T07:04:12.268Z,99975.25
2022-10-13T07:06:38.855Z,99982.22
2022-10-13T07:09:06.245Z,99974.13
2022-10-13T07:11:34.597Z,99969.78
2022-10-13T07:16:33.096Z,99978.91
2022-10-13T07:18:59.997Z,99982.41
2022-10-13T07:21:26.710Z,99976.19
2022-10-13T07:23:53.572Z,99976.03
2022-10-13T07:26:20.483Z,99977.84
2022-10-13T07:28:49.264Z,99983.09
2022-10-13T07:31:17.179Z,99982.28
2022-10-13T07:33:45.698Z,99973.97
2022-10-13T07:36:12.794Z,99974.13
2022-10-13T07:38:39.909Z,99981.09
2022-10-13T07:41:08.839Z,99976.69
2022-10-13T07:43:35.478Z,99965.72
2022-10-13T07:46:09.299Z,99957.00
2022-10-13T07:48:36.397Z,99956.44
2022-10-13T07:51:07.176Z,99965.81
2022-10-13T07:53:33.858Z,99964.03
2022-10-13T07:56:00.888Z,99966.50
2022-10-13T07:58:27.957Z,99975.84
2022-10-13T08:00:59.546Z,99975.38
2022-10-13T08:03:28.783Z,99979.25
2022-10-13T08:05:57.989Z,99979.94
2022-10-13T08:08:24.734Z,99964.84
2022-10-13T08:10:51.473Z,99981.28
2022-10-13T08:13:18.202Z,99964.66
2022-10-13T08:15:45.413Z,99966.00
2022-10-13T08:18:13.448Z,99965.25
2022-10-13T08:20:43.811Z,99951.00
2022-10-13T08:23:11.367Z,99969.78
2022-10-13T08:25:40.637Z,99958.66
2022-10-13T08:28:15.681Z,99965.09
2022-10-13T08:30:42.506Z,99960.91
2022-10-13T08:33:10.232Z,99974.53
2022-10-13T08:35:37.967Z,99976.38
2022-10-13T08:38:06.184Z,99982.34
2022-10-13T08:40:32.857Z,99976.41
2022-10-13T08:43:00.505Z,99975.38
2022-10-13T08:45:45.655Z,99976.69
2022-10-13T08:48:17.116Z,99970.47
2022-10-13T08:50:47.542Z,99972.19
2022-10-13T08:53:22.664Z,99963.19
2022-10-13T08:55:52.244Z,99944.25
2022-10-13T08:58:23.137Z,99954.09
2022-10-13T09:00:57.780Z,99959.59
2022-10-13T09:03:26.357Z,99954.53
2022-10-13T09:06:05.780Z,99959.19
2022-10-13T09:08:42.951Z,99954.81
2022-10-13T09:11:10.981Z,99957.31
2022-10-13T09:13:37.617Z,99949.53
2022-10-13T09:16:04.627Z,99958.84
2022-10-13T09:18:32.685Z,99957.81
2022-10-13T09:21:16.808Z,99954.84
2022-10-13T09:23:45.207Z,99949.88
2022-10-13T09:26:17.252Z,99952.38
2022-10-13T09:28:43.869Z,99956.38
2022-10-13T09:31:15.809Z,99956.16
2022-10-13T09:33:42.662Z,99948.34
2022-10-13T09:36:12.312Z,99944.31
2022-10-13T09:38:40.446Z,99944.22
2022-10-13T09:41:18.362Z,99943.38
2022-10-13T09:43:59.905Z,99951.63
2022-10-13T09:46:29.728Z,99946.03
2022-10-13T09:48:59.890Z,99939.53
2022-10-13T09:51:43.307Z,99945.69
2022-10-13T09:54:39.030Z,99929.72
2022-10-13T09:57:25.685Z,99929.59
2022-10-13T09:59:54.030Z,99923.75
2022-10-13T10:02:28.240Z,99923.84
2022-10-13T10:05:00.600Z,99923.94
2022-10-13T10:07:31.232Z,99918.44
2022-10-13T10:10:02.522Z,99918.41
2022-10-13T10:12:34.109Z,99911.53
2022-10-13T10:15:01.186Z,99913.72
2022-10-13T10:17:33.394Z,99909.72
2022-10-13T10:20:15.231Z,99906.34
2022-10-13T10:22:56.904Z,99908.19
2022-10-13T10:25:33.958Z,99900.81
2022-10-13T10:28:35.020Z,99903.91
2022-10-13T10:31:13.216Z,99899.38
2022-10-13T10:33:49.374Z,99898.47
2022-10-13T10:36:22.431Z,99901.84
2022-10-13T10:38:54.299Z,99893.38
2022-10-13T10:41:36.730Z,99896.72
2022-10-13T10:44:10.875Z,99891.53
2022-10-13T10:46:43.302Z,99883.94
2022-10-13T10:49:15.500Z,99891.63
2022-10-13T10:51:42.816Z,99883.03
2022-10-13T10:54:27.301Z,99883.53
2022-10-13T10:56:58.299Z,99881.09
2022-10-13T10:59:50.053Z,99870.06
2022-10-13T11:02:37.384Z,99867.19
2022-10-13T11:05:06.354Z,99858.31
2022-10-13T11:07:54.724Z,99856.97
2022-10-13T11:13:20.236Z,99855.06
2022-10-13T11:15:48.812Z,99852.28
2022-10-13T11:18:53.015Z,99852.13
2022-10-13T11:21:22.384Z,99847.25
2022-10-13T11:23:50.119Z,99852.63
2022-10-13T11:26:29.791Z,99851.25
2022-10-13T11:28:56.950Z,99857.84
2022-10-13T11:31:35.135Z,99850.72
2022-10-13T11:34:03.172Z,99847.25
2022-10-13T11:36:38.854Z,99852.00
2022-10-13T11:39:28.950Z,99858.38
2022-10-13T11:42:05.620Z,99858.31
2022-10-13T11:44:39.813Z,99857.50
2022-10-13T11:47:17.119Z,99853.66
2022-10-13T11:50:18.224Z,99850.31
2022-10-13T11:53:03.189Z,99846.19
2022-10-13T11:55:39.687Z,99850.00
2022-10-13T11:58:14.246Z,99846.66
2022-10-13T12:00:53.696Z,99848.03
2022-10-13T12:03:26.124Z,99848.28
2022-10-13T12:05:55.281Z,99841.78
2022-10-13T12:08:23.617Z,99843.66
2022-10-13T12:10:56.767Z,99844.78
2022-10-13T12:13:28.228Z,99847.44
2022-10-13T12:16:00.640Z,99844.53
2022-10-13T12:18:30.832Z,99849.22
2022-10-13T12:20:59.839Z,99849.13
2022-10-13T12:23:27.539Z,99843.94
2022-10-13T12:25:55.346Z,99848.13
2022-10-13T12:28:22.111Z,99847.72
2022-10-13T12:30:52.757Z,99841.09
2022-10-13T12:33:25.890Z,99838.00
2022-10-13T12:35:54.725Z,99835.97
2022-10-13T12:38:22.268Z,99838.72
2022-10-13T12:40:51.416Z,99836.66
2022-10-13T12:43:24.833Z,99838.56
2022-10-13T12:45:51.776Z,99838.00
2022-10-13T12:48:35.545Z,99836.16
2022-10-13T12:51:24.920Z,99828.84
2022-10-13T12:53:52.832Z,99831.56
2022-10-13T12:56:30.396Z,99825.47
2022-10-13T12:58:59.880Z,99834.31
2022-10-13T13:05:00.871Z,99801.09
2022-10-13T13:07:34.391Z,99832.53
2022-10-13T13:10:10.555Z,99823.94
2022-10-13T13:12:40.047Z,99820.41
2022-10-13T13:15:35.666Z,99821.66
2022-10-13T13:18:30.114Z,99825.22
2022-10-13T13:20:57.213Z,99815.41
2022-10-13T13:23:27.798Z,99820.72
2022-10-13T13:26:01.707Z,99813.72
2022-10-13T13:28:30.494Z,99807.63
2022-10-13T13:30:57.113Z,99808.56
2022-10-13T13:33:23.678Z,99803.47
2022-10-13T13:35:52.312Z,99796.81
2022-10-13T13:38:19.049Z,99794.25
2022-10-13T13:40:49.390Z,99799.72
2022-10-13T13:43:16.132Z,99798.50
2022-10-13T13:45:43.105Z,99792.41
2022-10-13T13:48:12.569Z,99785.63
2022-10-13T13:50:40.019Z,99790.75
2022-10-13T13:53:08.889Z,99790.69
2022-10-13T13:55:35.523Z,99792.66
2022-10-13T13:58:07.108Z,99792.75
2022-10-13T14:00:35.669Z,99786.53
2022-10-13T14:03:04.911Z,99800.88
2022-10-13T14:05:31.440Z,99796.81
2022-10-13T14:07:58.293Z,99794.19
2022-10-13T14:10:26.130Z,99793.03
2022-10-13T14:12:52.618Z,99794.41
2022-10-13T14:15:23.443Z,99784.59
2022-10-13T14:17:52.937Z,99791.56
2022-10-13T14:20:20.042Z,99792.81
2022-10-13T14:22:46.785Z,99783.84
2022-10-13T14:25:13.844Z,99788.50
2022-10-13T14:27:40.637Z,99794.31
2022-10-13T14:30:08.567Z,99791.41
2022-10-13T14:32:40.888Z,99784.97
2022-10-13T14:35:08.485Z,99782.19
2022-10-13T14:37:35.424Z,99781.34
2022-10-13T14:40:02.689Z,99779.16
2022-10-13T14:42:29.631Z,99787.72
2022-10-13T14:44:56.555Z,99782.50
2022-10-13T14:47:25.493Z,99778.09
2022-10-13T14:49:57.143Z,99781.84
2022-10-13T14:52:24.012Z,99774.53
2022-10-13T14:54:51.091Z,99777.50
2022-10-13T14:57:19.354Z,99769.41
2022-10-13T14:59:46.239Z,99765.56
2022-10-13T15:02:12.798Z,99758.16
2022-10-13T15:04:41.915Z,99759.84
2022-10-13T15:07:13.671Z,99753.75
2022-10-13T15:09:53.163Z,99757.59
2022-10-13T15:12:30.407Z,99755.00
2022-10-13T15:15:03.171Z,99748.72
2022-10-13T15:17:31.019Z,99750.22
2022-10-13T15:20:00.030Z,99752.97
2022-10-13T15:22:29.290Z,99744.41
2022-10-13T15:24:56.533Z,99746.19
2022-10-13T15:27:23.115Z,99737.91
2022-10-13T15:29:51.951Z,99750.53
2022-10-13T15:32:20.939Z,99747.09
2022-10-13T15:34:49.432Z,99747.25
2022-10-13T15:37:16.289Z,99738.19
2022-10-13T15:39:44.771Z,99735.44
2022-10-13T15:42:12.061Z,99743.44
2022-10-13T15:47:25.575Z,99737.81
2022-10-13T15:49:52.201Z,99743.03
2022-10-13T15:52:18.835Z,99733.91
2022-10-13T15:54:47.621Z,99731.88
2022-10-13T15:57:14.139Z,99733.22
2022-10-13T15:59:40.770Z,99718.88
2022-10-13T16:02:07.308Z,99716.56
2022-10-13T16:04:37.580Z,99729.34
2022-10-13T16:07:05.743Z,99722.84
2022-10-13T16:09:32.794Z,99712.16
2022-10-13T16:12:01.611Z,99720.28
2022-10-13T16:14:28.170Z,99713.75
2022-10-13T16:16:54.998Z,99708.13
2022-10-13T16:19:22.078Z,99705.06
2022-10-13T16:21:48.798Z,99711.84
2022-10-13T16:24:15.776Z,99694.19
2022-10-13T16:26:42.702Z,99695.94
2022-10-13T16:29:10.820Z,99699.09
2022-10-13T16:31:37.826Z,99704.91
2022-10-13T16:34:04.364Z,99709.94
2022-10-13T16:36:31.106Z,99711.81
2022-10-13T16:38:58.570Z,99704.19
2022-10-13T16:41:27.588Z,99709.03
2022-10-13T16:43:55.329Z,99714.00
2022-10-13T16:46:25.001Z,99713.28
2022-10-13T16:48:51.524Z,99717.63
2022-10-13T16:51:19.669Z,99723.25
2022-10-13T16:53:51.435Z,99727.63
2022-10-13T16:56:18.852Z,99729.34
2022-10-13T16:58:45.458Z,99730.19
2022-10-13T17:01:13.483Z,99736.00
2022-10-13T17:03:44.106Z,99731.94
2022-10-13T17:06:12.410Z,99733.69
2022-10-13T17:08:39.011Z,99735.13
2022-10-13T17:11:06.953Z,99733.81
2022-10-13T17:13:36.068Z,99744.53
2022-10-13T17:16:03.452Z,99742.53
2022-10-13T17:18:30.862Z,99745.25
2022-10-13T17:21:00.695Z,99744.97
2022-10-13T17:23:28.429Z,99739.47
2022-10-13T17:25:56.304Z,99747.56
2022-10-13T17:28:23.643Z,99743.97
2022-10-13T17:30:59.070Z,99739.78
2022-10-13T17:33:26.310Z,99752.50
2022-10-13T17:35:58.103Z,99742.53
2022-10-13T17:38:26.318Z,99756.72
2022-10-13T17:40:56.120Z,99748.75
2022-10-13T17:43:26.268Z,99760.03
2022-10-13T17:45:53.055Z,99759.88
2022-10-13T17:48:23.096Z,99759.88
2022-10-13T17:50:50.557Z,99762.63
2022-10-13T17:53:17.418Z,99753.69
2022-10-13T17:55:46.484Z,99761.19
2022-10-13T17:58:13.335Z,99762.34
2022-10-13T18:01:11.428Z,99758.44
2022-10-13T18:03:26.878Z,99765.50
2022-10-13T18:05:54.263Z,99766.53
2022-10-13T18:08:21.191Z,99767.25
2022-10-13T18:11:07.745Z,99760.75
2022-10-13T18:13:35.648Z,99762.47
2022-10-13T18:16:03.868Z,99759.72
2022-10-13T18:18:31.236Z,99769.09
2022-10-13T18:21:00.360Z,99762.16
2022-10-13T18:23:28.829Z,99763.03
2022-10-13T18:26:00.397Z,99778.22
2022-10-13T18:28:29.578Z,99771.09
2022-10-13T18:31:02.319Z,99765.31
2022-10-13T18:33:29.704Z,99772.69
2022-10-13T18:35:56.313Z,99767.59
2022-10-13T18:38:23.735Z,99769.38
2022-10-13T18:40:50.355Z,99773.38
2022-10-13T18:43:18.679Z,99775.16
2022-10-13T18:45:45.373Z,99771.66
2022-10-13T18:48:12.181Z,99775.81
2022-10-13T18:50:39.312Z,99774.69
2022-10-13T18:53:05.980Z,99770.91
2022-10-13T18:55:33.657Z,99762.09
2022-10-13T18:58:00.171Z,99763.09
2022-10-13T19:00:28.335Z,99769.91
2022-10-13T19:02:54.903Z,99766.16
2022-10-13T19:05:24.159Z,99760.34
2022-10-13T19:07:50.964Z,99766.81
2022-10-13T19:10:17.505Z,99772.59
2022-10-13T19:12:44.407Z,99778.41
2022-10-13T19:15:11.789Z,99774.91
2022-10-13T19:17:39.893Z,99784.84
2022-10-13T19:20:07.363Z,99776.53
2022-10-13T19:22:35.865Z,99781.38
2022-10-13T19:25:02.432Z,99787.03
2022-10-13T19:27:28.961Z,99787.69
2022-10-13T19:29:55.548Z,99778.63
2022-10-13T19:32:22.334Z,99784.19
2022-10-13T19:34:50.647Z,99773.03
2022-10-13T19:37:19.110Z,99792.00
2022-10-13T19:39:46.504Z,99781.00
2022-10-13T19:42:13.112Z,99790.78
2022-10-13T19:44:39.652Z,99786.34
2022-10-13T19:47:06.643Z,99786.88
2022-10-13T19:49:33.185Z,99785.69
2022-10-13T19:52:01.533Z,99781.13
2022-10-13T19:54:33.622Z,99791.25
2022-10-13T19:57:00.915Z,99784.47
2022-10-13T19:59:27.724Z,99793.59
2022-10-13T20:01:54.834Z,99794.84
2022-10-13T20:04:31.646Z,99792.44
2022-10-13T20:06:58.447Z,99795.28
2022-10-13T20:09:31.540Z,99797.16
2022-10-13T20:11:58.391Z,99793.59
2022-10-13T20:14:26.293Z,99804.31
2022-10-13T20:16:54.155Z,99806.31
2022-10-13T20:19:20.683Z,99810.03
2022-10-13T20:21:47.538Z,99816.38
2022-10-13T20:24:14.402Z,99801.75
2022-10-13T20:26:42.784Z,99806.78
2022-10-13T20:29:10.003Z,99793.03
2022-10-13T20:31:38.424Z,99800.09
2022-10-13T20:34:04.972Z,99797.50
2022-10-13T20:36:38.855Z,99796.25
2022-10-13T20:39:06.197Z,99803.16
2022-10-13T20:41:33.347Z,99803.03
2022-10-13T20:44:02.605Z,99805.03
2022-10-13T20:46:29.275Z,99808.03
2022-10-13T20:49:14.542Z,99802.81
2022-10-13T20:51:42.116Z,99801.97
2022-10-13T20:54:09.446Z,99806.09
2022-10-13T20:56:36.215Z,99814.09
2022-10-13T20:59:05.022Z,99796.34
2022-10-13T21:01:32.608Z,99815.88
2022-10-13T21:03:59.178Z,99808.84
2022-10-13T21:06:26.602Z,99804.75
2022-10-13T21:08:54.071Z,99814.66
2022-10-13T21:11:22.112Z,99811.00
2022-10-13T21:13:49.542Z,99808.53
2022-10-13T21:16:20.524Z,99809.13
2022-10-13T21:18:52.949Z,99806.97
2022-10-13T21:21:21.552Z,99810.94
2022-10-13T21:23:50.299Z,99805.03
2022-10-13T21:26:21.646Z,99804.72
2022-10-13T21:28:49.687Z,99801.31
2022-10-13T21:31:19.961Z,99804.06
2022-10-13T21:33:46.734Z,99804.81
2022-10-13T21:36:15.335Z,99796.53
2022-10-13T21:38:43.555Z,99798.03
2022-10-13T21:41:12.473Z,99804.22
2022-10-13T21:43:40.756Z,99807.25
2022-10-13T21:46:11.952Z,99804.69
2022-10-13T21:48:39.975Z,99799.34
2022-10-13T21:51:16.191Z,99800.34
2022-10-13T21:53:43.654Z,99806.97
2022-10-13T21:56:11.745Z,99803.78
2022-10-13T21:58:38.499Z,99797.88
2022-10-13T22:01:06.287Z,99801.81
2022-10-13T22:03:34.771Z,99803.63
2022-10-13T22:06:06.915Z,99803.34
2022-10-13T22:08:39.441Z,99799.22
2022-10-13T22:11:08.709Z,99806.31
2022-10-13T22:13:35.951Z,99790.22
2022-10-13T22:16:03.666Z,99801.09
2022-10-13T22:18:30.635Z,99803.84
2022-10-13T22:21:00.812Z,99796.72
2022-10-13T22:23:29.064Z,99798.28
2022-10-13T22:25:56.083Z,99797.16
2022-10-13T22:28:23.269Z,99787.91
2022-10-13T22:30:50.056Z,99792.25
2022-10-13T22:33:16.933Z,99782.53
2022-10-13T22:35:43.514Z,99792.84
2022-10-13T22:38:12.469Z,99791.56
2022-10-13T22:40:40.908Z,99791.44
2022-10-13T22:43:07.764Z,99794.25
2022-10-13T22:45:34.274Z,99793.88
2022-10-13T22:48:00.823Z,99790.97
2022-10-13T22:50:27.570Z,99788.81
2022-10-13T22:52:54.383Z,99782.88
2022-10-13T22:55:21.251Z,99790.97
2022-10-13T22:57:49.208Z,99791.72
2022-10-13T23:00:16.753Z,99788.50
2022-10-13T23:02:43.285Z,99782.00
2022-10-13T23:05:09.811Z,99788.03
2022-10-13T23:07:36.576Z,99783.59
2022-10-13T23:10:03.869Z,99779.13
2022-10-13T23:12:30.409Z,99768.38
2022-10-13T23:14:58.780Z,99777.03
2022-10-13T23:17:28.616Z,99778.72
2022-10-13T23:19:55.114Z,99771.81
2022-10-13T23:22:21.822Z,99778.06
2022-10-13T23:24:48.587Z,99765.34
2022-10-13T23:27:34.369Z,99767.41
2022-10-13T23:30:02.382Z,99762.66
2022-10-13T23:32:28.954Z,99766.41
2022-10-13T23:34:56.214Z,99768.81
2022-10-13T23:37:23.334Z,99757.72
2022-10-13T23:39:54.134Z,99752.06
2022-10-13T23:42:22.743Z,99752.06
2022-10-13T23:44:49.248Z,99753.81
2022-10-13T23:47:17.170Z,99740.28
2022-10-13T23:49:45.149Z,99750.06
2022-10-13T23:52:11.697Z,99750.63
2022-10-13T23:54:38.191Z,99747.47
2022-10-13T23:57:07.717Z,99751.69
2022-10-13T23:59:34.272Z,99743.44
